sensor_id;sensor_type;location;lat;lon;timestamp;pressure;altitude;pressure_sealevel;temperature;humidity
3668;BME280;24099;47.102;15.440;2022-09-21T00:01:23;97628.72;;;6.07;100.00
3668;BME280;24099;47.102;15.440;2022-09-21T00:03:53;97635.91;;;5.85;100.00
3668;BME280;24099;47.102;15.440;2022-09-21T00:06:22;97629.03;;;5.94;100.00
3668;BME280;24099;47.102;15.440;2022-09-21T00:08:50;97632.63;;;5.93;100.00
3668;BME280;24099;47.102;15.440;2022-09-21T00:11:21;97627.94;;;5.97;100.00
3668;BME280;24099;47.102;15.440;2022-09-21T00:13:53;97633.69;;;6.00;100.00
3668;BME280;24099;47.102;15.440;2022-09-21T00:16:22;97632.56;;;6.03;100.00
3668;BME280;24099;47.102;15.440;2022-09-21T00:18:49;97639.44;;;6.13;100.00
3668;BME280;24099;47.102;15.440;2022-09-21T00:21:18;97637.84;;;5.74;100.00
3668;BME280;24099;47.102;15.440;2022-09-21T00:23:48;97634.31;;;5.56;100.00
3668;BME280;24099;47.102;15.440;2022-09-21T00:26:18;97638.53;;;5.66;100.00
3668;BME280;24099;47.102;15.440;2022-09-21T00:28:46;97633.72;;;5.62;100.00
3668;BME280;24099;47.102;15.440;2022-09-21T00:31:16;97628.22;;;5.65;100.00
3668;BME280;24099;47.102;15.440;2022-09-21T00:33:44;97632.91;;;5.42;100.00
3668;BME280;24099;47.102;15.440;2022-09-21T00:36:14;97630.44;;;5.60;100.00
3668;BME280;24099;47.102;15.440;2022-09-21T00:38:42;97635.81;;;5.58;100.00
3668;BME280;24099;47.102;15.440;2022-09-21T00:41:12;97641.84;;;5.78;100.00
3668;BME280;24099;47.102;15.440;2022-09-21T00:43:41;97637.75;;;5.56;100.00
3668;BME280;24099;47.102;15.440;2022-09-21T00:46:27;97639.63;;;5.64;100.00
3668;BME280;24099;47.102;15.440;2022-09-21T00:48:57;97640.38;;;5.37;100.00
3668;BME280;24099;47.102;15.440;2022-09-21T00:51:25;97646.94;;;5.50;100.00
3668;BME280;24099;47.102;15.440;2022-09-21T00:53:56;97646.94;;;5.50;100.00
3668;BME280;24099;47.102;15.440;2022-09-21T00:56:27;97646.25;;;5.48;100.00
3668;BME280;24099;47.102;15.440;2022-09-21T00:58:55;97646.94;;;5.50;100.00
3668;BME280;24099;47.102;15.440;2022-09-21T01:01:28;97647.75;;;5.41;100.00
3668;BME280;24099;47.102;15.440;2022-09-21T01:03:56;97648.88;;;5.39;100.00
3668;BME280;24099;47.102;15.440;2022-09-21T01:06:24;97653.69;;;5.53;100.00
3668;BME280;24099;47.102;15.440;2022-09-21T01:08:54;97650.78;;;5.66;100.00
3668;BME280;24099;47.102;15.440;2022-09-21T01:11:39;97646.94;;;5.50;100.00
3668;BME280;24099;47.102;15.440;2022-09-21T01:14:29;97644.91;;;5.35;100.00
3668;BME280;24099;47.102;15.440;2022-09-21T01:17:07;97652.84;;;5.43;100.00
3668;BME280;24099;47.102;15.440;2022-09-21T01:20:18;97645.16;;;5.51;100.00
3668;BME280;24099;47.102;15.440;2022-09-21T01:23:03;97643.22;;;5.63;100.00
3668;BME280;24099;47.102;15.440;2022-09-21T01:25:38;97645.44;;;5.58;100.00
3668;BME280;24099;47.102;15.440;2022-09-21T01:28:24;97644.44;;;5.68;100.00
3668;BME280;24099;47.102;15.440;2022-09-21T01:31:02;97648.03;;;5.29;100.00
3668;BME280;24099;47.102;15.440;2022-09-21T01:33:34;97653.00;;;5.51;100.00
3668;BME280;24099;47.102;15.440;2022-09-21T01:36:07;97645.81;;;5.63;100.00
3668;BME280;24099;47.102;15.440;2022-09-21T01:38:39;97646.53;;;5.45;100.00
3668;BME280;24099;47.102;15.440;2022-09-21T01:41:11;97653.13;;;5.30;100.00
3668;BME280;24099;47.102;15.440;2022-09-21T01:43:42;97653.69;;;5.34;100.00
3668;BME280;24099;47.102;15.440;2022-09-21T01:46:17;97649.81;;;5.47;100.00
3668;BME280;24099;47.102;15.440;2022-09-21T01:48:47;97649.03;;;5.37;100.00
3668;BME280;24099;47.102;15.440;2022-09-21T01:51:18;97649.44;;;5.33;100.00
3668;BME280;24099;47.102;15.440;2022-09-21T01:53:50;97661.38;;;5.35;100.00
3668;BME280;24099;47.102;15.440;2022-09-21T01:56:26;97655.59;;;5.12;100.00
3668;BME280;24099;47.102;15.440;2022-09-21T01:59:06;97655.56;;;5.03;100.00
3668;BME280;24099;47.102;15.440;2022-09-21T02:01:43;97655.72;;;5.20;100.00
3668;BME280;24099;47.102;15.440;2022-09-21T02:04:13;97659.16;;;5.21;100.00
3668;BME280;24099;47.102;15.440;2022-09-21T02:06:45;97642.53;;;5.41;100.00
3668;BME280;24099;47.102;15.440;2022-09-21T02:09:13;97650.94;;;5.45;100.00
3668;BME280;24099;47.102;15.440;2022-09-21T02:11:41;97650.25;;;5.52;100.00
3668;BME280;24099;47.102;15.440;2022-09-21T02:14:13;97645.44;;;5.48;100.00
3668;BME280;24099;47.102;15.440;2022-09-21T02:16:47;97648.59;;;5.13;100.00
3668;BME280;24099;47.102;15.440;2022-09-21T02:19:33;97645.03;;;5.33;100.00
3668;BME280;24099;47.102;15.440;2022-09-21T02:22:06;97646.53;;;5.26;100.00
3668;BME280;24099;47.102;15.440;2022-09-21T02:24:39;97645.00;;;5.43;100.00
3668;BME280;24099;47.102;15.440;2022-09-21T02:27:22;97643.22;;;5.24;100.00
3668;BME280;24099;47.102;15.440;2022-09-21T02:30:02;97647.38;;;5.36;100.00
3668;BME280;24099;47.102;15.440;2022-09-21T02:32:42;97653.56;;;5.35;100.00
3668;BME280;24099;47.102;15.440;2022-09-21T02:35:25;97646.81;;;5.23;100.00
3668;BME280;24099;47.102;15.440;2022-09-21T02:38:06;97654.91;;;5.20;100.00
3668;BME280;24099;47.102;15.440;2022-09-21T02:40:38;97654.91;;;5.30;100.00
3668;BME280;24099;47.102;15.440;2022-09-21T02:43:14;97653.41;;;5.27;100.00
3668;BME280;24099;47.102;15.440;2022-09-21T02:45:50;97647.75;;;5.22;100.00
3668;BME280;24099;47.102;15.440;2022-09-21T02:48:26;97651.03;;;5.05;100.00
3668;BME280;24099;47.102;15.440;2022-09-21T02:50:58;97647.34;;;4.98;100.00
3668;BME280;24099;47.102;15.440;2022-09-21T02:53:31;97652.72;;;5.25;100.00
3668;BME280;24099;47.102;15.440;2022-09-21T02:56:01;97648.72;;;5.21;100.00
3668;BME280;24099;47.102;15.440;2022-09-21T02:58:35;97657.78;;;5.27;100.00
3668;BME280;24099;47.102;15.440;2022-09-21T03:01:05;97665.88;;;5.04;100.00
3668;BME280;24099;47.102;15.440;2022-09-21T03:03:35;97661.19;;;4.89;100.00
3668;BME280;24099;47.102;15.440;2022-09-21T03:06:03;97668.56;;;4.83;100.00
3668;BME280;24099;47.102;15.440;2022-09-21T03:08:31;97671.63;;;4.89;100.00
3668;BME280;24099;47.102;15.440;2022-09-21T03:10:58;97677.66;;;4.89;100.00
3668;BME280;24099;47.102;15.440;2022-09-21T03:13:26;97672.72;;;4.96;100.00
3668;BME280;24099;47.102;15.440;2022-09-21T03:15:59;97675.75;;;5.01;100.00
3668;BME280;24099;47.102;15.440;2022-09-21T03:18:27;97673.69;;;4.95;100.00
3668;BME280;24099;47.102;15.440;2022-09-21T03:20:56;97674.78;;;4.92;100.00
3668;BME280;24099;47.102;15.440;2022-09-21T03:23:24;97682.56;;;4.73;100.00
3668;BME280;24099;47.102;15.440;2022-09-21T03:25:52;97673.38;;;4.78;100.00
3668;BME280;24099;47.102;15.440;2022-09-21T03:28:20;97688.72;;;4.72;100.00
3668;BME280;24099;47.102;15.440;2022-09-21T03:30:48;97680.59;;;4.65;100.00
3668;BME280;24099;47.102;15.440;2022-09-21T03:33:18;97679.38;;;4.69;100.00
3668;BME280;24099;47.102;15.440;2022-09-21T03:35:50;97678.94;;;4.64;100.00
3668;BME280;24099;47.102;15.440;2022-09-21T03:38:20;97677.22;;;4.44;100.00
3668;BME280;24099;47.102;15.440;2022-09-21T03:40:48;97686.50;;;4.67;100.00
3668;BME280;24099;47.102;15.440;2022-09-21T03:43:16;97678.16;;;4.33;100.00
3668;BME280;24099;47.102;15.440;2022-09-21T03:45:44;97682.06;;;4.48;100.00
3668;BME280;24099;47.102;15.440;2022-09-21T03:48:12;97682.56;;;4.42;100.00
3668;BME280;24099;47.102;15.440;2022-09-21T03:50:40;97684.06;;;4.35;100.00
3668;BME280;24099;47.102;15.440;2022-09-21T03:53:08;97681.69;;;4.02;100.00
3668;BME280;24099;47.102;15.440;2022-09-21T03:55:37;97684.44;;;4.31;100.00
3668;BME280;24099;47.102;15.440;2022-09-21T03:58:05;97687.53;;;4.15;100.00
3668;BME280;24099;47.102;15.440;2022-09-21T04:00:33;97686.72;;;4.14;100.00
3668;BME280;24099;47.102;15.440;2022-09-21T04:03:01;97686.50;;;4.27;100.00
3668;BME280;24099;47.102;15.440;2022-09-21T04:05:31;97686.97;;;4.11;100.00
3668;BME280;24099;47.102;15.440;2022-09-21T04:07:59;97687.19;;;4.29;100.00
3668;BME280;24099;47.102;15.440;2022-09-21T04:10:27;97684.72;;;4.28;100.00
3668;BME280;24099;47.102;15.440;2022-09-21T04:13:00;97692.09;;;4.53;100.00
3668;BME280;24099;47.102;15.440;2022-09-21T04:15:30;97690.25;;;4.44;100.00
3668;BME280;24099;47.102;15.440;2022-09-21T04:17:57;97692.59;;;4.37;100.00
3668;BME280;24099;47.102;15.440;2022-09-21T04:20:25;97704.97;;;4.24;100.00
3668;BME280;24099;47.102;15.440;2022-09-21T04:22:52;97700.09;;;4.31;100.00
3668;BME280;24099;47.102;15.440;2022-09-21T04:25:20;97706.19;;;4.20;100.00
3668;BME280;24099;47.102;15.440;2022-09-21T04:27:47;97695.13;;;4.28;100.00
3668;BME280;24099;47.102;15.440;2022-09-21T04:30:17;97702.25;;;4.05;100.00
3668;BME280;24099;47.102;15.440;2022-09-21T04:32:45;97704.13;;;3.93;100.00
3668;BME280;24099;47.102;15.440;2022-09-21T04:35:12;97708.19;;;3.86;100.00
3668;BME280;24099;47.102;15.440;2022-09-21T04:37:40;97711.03;;;4.04;100.00
3668;BME280;24099;47.102;15.440;2022-09-21T04:40:08;97704.16;;;4.24;100.00
3668;BME280;24099;47.102;15.440;2022-09-21T04:42:36;97710.03;;;4.16;100.00
3668;BME280;24099;47.102;15.440;2022-09-21T04:45:04;97715.63;;;4.11;100.00
3668;BME280;24099;47.102;15.440;2022-09-21T04:47:34;97713.97;;;4.10;100.00
3668;BME280;24099;47.102;15.440;2022-09-21T04:50:01;97705.88;;;4.13;100.00
3668;BME280;24099;47.102;15.440;2022-09-21T04:52:29;97721.03;;;3.78;100.00
3668;BME280;24099;47.102;15.440;2022-09-21T04:54:58;97716.25;;;4.04;100.00
3668;BME280;24099;47.102;15.440;2022-09-21T04:57:26;97725.44;;;4.08;100.00
3668;BME280;24099;47.102;15.440;2022-09-21T04:59:53;97725.66;;;3.95;100.00
3668;BME280;24099;47.102;15.440;2022-09-21T05:02:20;97724.13;;;3.93;100.00
3668;BME280;24099;47.102;15.440;2022-09-21T05:04:50;97726.41;;;3.86;100.00
3668;BME280;24099;47.102;15.440;2022-09-21T05:07:18;97730.16;;;3.93;100.00
3668;BME280;24099;47.102;15.440;2022-09-21T05:09:46;97722.97;;;4.06;100.00
3668;BME280;24099;47.102;15.440;2022-09-21T05:12:28;97721.19;;;4.07;100.00
3668;BME280;24099;47.102;15.440;2022-09-21T05:14:56;97726.16;;;3.89;100.00
3668;BME280;24099;47.102;15.440;2022-09-21T05:17:24;97734.59;;;4.02;100.00
3668;BME280;24099;47.102;15.440;2022-09-21T05:19:53;97734.66;;;4.12;100.00
3668;BME280;24099;47.102;15.440;2022-09-21T05:22:20;97737.47;;;3.99;100.00
3668;BME280;24099;47.102;15.440;2022-09-21T05:24:48;97733.34;;;4.18;100.00
3668;BME280;24099;47.102;15.440;2022-09-21T05:27:15;97737.44;;;4.20;100.00
3668;BME280;24099;47.102;15.440;2022-09-21T05:29:44;97737.16;;;4.13;100.00
3668;BME280;24099;47.102;15.440;2022-09-21T05:32:17;97742.38;;;4.13;100.00
3668;BME280;24099;47.102;15.440;2022-09-21T05:35:00;97736.50;;;4.00;100.00
3668;BME280;24099;47.102;15.440;2022-09-21T05:37:44;97742.75;;;4.09;100.00
3668;BME280;24099;47.102;15.440;2022-09-21T05:40:14;97749.47;;;4.11;100.00
3668;BME280;24099;47.102;15.440;2022-09-21T05:42:42;97752.78;;;3.93;100.00
3668;BME280;24099;47.102;15.440;2022-09-21T05:45:14;97745.00;;;4.02;100.00
3668;BME280;24099;47.102;15.440;2022-09-21T05:47:55;97750.56;;;4.09;100.00
3668;BME280;24099;47.102;15.440;2022-09-21T05:50:38;97749.25;;;4.24;100.00
3668;BME280;24099;47.102;15.440;2022-09-21T05:53:28;97753.34;;;4.17;100.00
3668;BME280;24099;47.102;15.440;2022-09-21T05:55:58;97755.56;;;4.22;100.00
3668;BME280;24099;47.102;15.440;2022-09-21T05:58:35;97748.19;;;4.27;100.00
3668;BME280;24099;47.102;15.440;2022-09-21T06:01:24;97755.50;;;4.12;100.00
3668;BME280;24099;47.102;15.440;2022-09-21T06:03:59;97766.88;;;4.32;100.00
3668;BME280;24099;47.102;15.440;2022-09-21T06:06:29;97757.63;;;4.48;100.00
3668;BME280;24099;47.102;15.440;2022-09-21T06:08:57;97761.63;;;4.53;100.00
3668;BME280;24099;47.102;15.440;2022-09-21T06:11:26;97758.66;;;4.57;100.00
3668;BME280;24099;47.102;15.440;2022-09-21T06:13:54;97757.38;;;4.52;100.00
3668;BME280;24099;47.102;15.440;2022-09-21T06:16:21;97749.06;;;4.58;100.00
3668;BME280;24099;47.102;15.440;2022-09-21T06:18:48;97753.59;;;4.65;100.00
3668;BME280;24099;47.102;15.440;2022-09-21T06:21:16;97748.13;;;4.68;100.00
3668;BME280;24099;47.102;15.440;2022-09-21T06:23:45;97759.00;;;4.73;100.00
3668;BME280;24099;47.102;15.440;2022-09-21T06:26:12;97752.56;;;4.77;100.00
3668;BME280;24099;47.102;15.440;2022-09-21T06:28:40;97756.66;;;4.80;100.00
3668;BME280;24099;47.102;15.440;2022-09-21T06:31:07;97745.97;;;4.83;100.00
3668;BME280;24099;47.102;15.440;2022-09-21T06:33:35;97745.03;;;4.84;100.00
3668;BME280;24099;47.102;15.440;2022-09-21T06:36:03;97754.25;;;4.88;100.00
3668;BME280;24099;47.102;15.440;2022-09-21T06:38:31;97743.69;;;4.90;100.00
3668;BME280;24099;47.102;15.440;2022-09-21T06:41:03;97750.56;;;5.00;100.00
3668;BME280;24099;47.102;15.440;2022-09-21T06:43:31;97747.03;;;5.11;100.00
3668;BME280;24099;47.102;15.440;2022-09-21T06:46:00;97751.31;;;5.22;100.00
3668;BME280;24099;47.102;15.440;2022-09-21T06:48:30;97753.69;;;5.44;100.00
3668;BME280;24099;47.102;15.440;2022-09-21T06:50:59;97757.56;;;5.69;100.00
3668;BME280;24099;47.102;15.440;2022-09-21T06:53:29;97749.44;;;5.62;100.00
3668;BME280;24099;47.102;15.440;2022-09-21T06:56:02;97757.16;;;5.73;100.00
3668;BME280;24099;47.102;15.440;2022-09-21T06:58:31;97751.78;;;5.84;100.00
3668;BME280;24099;47.102;15.440;2022-09-21T07:01:05;97749.75;;;6.07;100.00
3668;BME280;24099;47.102;15.440;2022-09-21T07:03:34;97747.81;;;6.09;100.00
3668;BME280;24099;47.102;15.440;2022-09-21T07:06:02;97759.63;;;6.33;100.00
3668;BME280;24099;47.102;15.440;2022-09-21T07:08:30;97753.78;;;6.48;100.00
3668;BME280;24099;47.102;15.440;2022-09-21T07:10:58;97756.50;;;6.66;100.00
3668;BME280;24099;47.102;15.440;2022-09-21T07:13:27;97753.31;;;6.72;100.00
3668;BME280;24099;47.102;15.440;2022-09-21T07:15:54;97755.16;;;6.89;100.00
3668;BME280;24099;47.102;15.440;2022-09-21T07:18:22;97759.34;;;7.10;100.00
3668;BME280;24099;47.102;15.440;2022-09-21T07:20:50;97756.06;;;7.25;100.00
3668;BME280;24099;47.102;15.440;2022-09-21T07:23:18;97762.31;;;7.42;100.00
3668;BME280;24099;47.102;15.440;2022-09-21T07:29:49;97759.25;;;8.00;100.00
3668;BME280;24099;47.102;15.440;2022-09-21T07:32:19;97747.22;;;8.51;100.00
3668;BME280;24099;47.102;15.440;2022-09-21T07:34:47;97747.16;;;8.69;100.00
3668;BME280;24099;47.102;15.440;2022-09-21T07:37:14;97750.97;;;8.74;100.00
3668;BME280;24099;47.102;15.440;2022-09-21T07:39:42;97748.41;;;8.90;100.00
3668;BME280;24099;47.102;15.440;2022-09-21T07:42:09;97749.69;;;9.20;100.00
3668;BME280;24099;47.102;15.440;2022-09-21T07:44:37;97754.84;;;9.38;100.00
3668;BME280;24099;47.102;15.440;2022-09-21T07:47:06;97753.53;;;9.42;100.00
3668;BME280;24099;47.102;15.440;2022-09-21T07:49:33;97759.81;;;9.57;100.00
3668;BME280;24099;47.102;15.440;2022-09-21T07:52:01;97762.63;;;9.80;100.00
3668;BME280;24099;47.102;15.440;2022-09-21T07:54:29;97749.34;;;10.14;100.00
3668;BME280;24099;47.102;15.440;2022-09-21T07:56:56;97752.84;;;10.31;100.00
3668;BME280;24099;47.102;15.440;2022-09-21T07:59:41;97750.16;;;10.63;100.00
3668;BME280;24099;47.102;15.440;2022-09-21T08:02:10;97753.09;;;10.77;100.00
3668;BME280;24099;47.102;15.440;2022-09-21T08:04:37;97753.53;;;10.88;100.00
3668;BME280;24099;47.102;15.440;2022-09-21T08:07:05;97750.53;;;10.99;100.00
3668;BME280;24099;47.102;15.440;2022-09-21T08:09:33;97749.94;;;11.20;100.00
3668;BME280;24099;47.102;15.440;2022-09-21T08:12:01;97747.66;;;11.56;100.00
3668;BME280;24099;47.102;15.440;2022-09-21T08:14:28;97752.53;;;11.67;100.00
3668;BME280;24099;47.102;15.440;2022-09-21T08:16:56;97755.19;;;11.90;100.00
3668;BME280;24099;47.102;15.440;2022-09-21T08:19:25;97749.75;;;12.15;100.00
3668;BME280;24099;47.102;15.440;2022-09-21T08:21:53;97745.53;;;12.43;100.00
3668;BME280;24099;47.102;15.440;2022-09-21T08:24:20;97745.38;;;12.59;100.00
3668;BME280;24099;47.102;15.440;2022-09-21T08:26:47;97755.84;;;12.53;100.00
3668;BME280;24099;47.102;15.440;2022-09-21T08:29:17;97755.69;;;12.69;100.00
3668;BME280;24099;47.102;15.440;2022-09-21T08:31:44;97759.50;;;12.81;100.00
3668;BME280;24099;47.102;15.440;2022-09-21T08:34:12;97758.13;;;13.00;100.00
3668;BME280;24099;47.102;15.440;2022-09-21T08:36:42;97738.63;;;13.01;100.00
3668;BME280;24099;47.102;15.440;2022-09-21T08:39:10;97746.03;;;13.05;97.45
3668;BME280;24099;47.102;15.440;2022-09-21T08:42:09;97743.94;;;12.86;100.00
3668;BME280;24099;47.102;15.440;2022-09-21T08:44:43;97749.03;;;12.58;100.00
3668;BME280;24099;47.102;15.440;2022-09-21T08:47:21;97746.34;;;12.43;100.00
3668;BME280;24099;47.102;15.440;2022-09-21T08:49:57;97753.75;;;12.63;100.00
3668;BME280;24099;47.102;15.440;2022-09-21T08:52:28;97747.63;;;12.48;100.00
3668;BME280;24099;47.102;15.440;2022-09-21T08:55:00;97753.34;;;12.36;100.00
3668;BME280;24099;47.102;15.440;2022-09-21T08:57:31;97755.91;;;12.07;100.00
3668;BME280;24099;47.102;15.440;2022-09-21T09:00:00;97753.69;;;12.19;100.00
3668;BME280;24099;47.102;15.440;2022-09-21T09:02:47;97756.97;;;12.73;100.00
3668;BME280;24099;47.102;15.440;2022-09-21T09:05:38;97754.78;;;13.21;100.00
3668;BME280;24099;47.102;15.440;2022-09-21T09:08:39;97744.31;;;13.63;100.00
3668;BME280;24099;47.102;15.440;2022-09-21T09:11:23;97740.06;;;13.84;95.40
3668;BME280;24099;47.102;15.440;2022-09-21T09:17:26;97738.16;;;14.41;93.04
3668;BME280;24099;47.102;15.440;2022-09-21T09:20:01;97729.63;;;14.46;90.03
3668;BME280;24099;47.102;15.440;2022-09-21T09:22:38;97731.84;;;14.42;90.10
3668;BME280;24099;47.102;15.440;2022-09-21T09:25:17;97734.00;;;14.32;96.44
3668;BME280;24099;47.102;15.440;2022-09-21T09:27:49;97731.09;;;14.83;96.55
3668;BME280;24099;47.102;15.440;2022-09-21T09:30:23;97726.31;;;15.00;97.93
3668;BME280;24099;47.102;15.440;2022-09-21T09:32:58;97730.75;;;14.93;83.02
3668;BME280;24099;47.102;15.440;2022-09-21T09:35:28;97729.16;;;14.64;79.63
3668;BME280;24099;47.102;15.440;2022-09-21T09:38:03;97725.00;;;15.24;83.04
3668;BME280;24099;47.102;15.440;2022-09-21T09:40:58;97729.00;;;15.54;81.01
3668;BME280;24099;47.102;15.440;2022-09-21T09:43:40;97715.28;;;15.44;79.62
3668;BME280;24099;47.102;15.440;2022-09-21T09:46:16;97723.53;;;15.14;80.82
3668;BME280;24099;47.102;15.440;2022-09-21T09:49:10;97720.69;;;15.23;72.04
3668;BME280;24099;47.102;15.440;2022-09-21T09:51:40;97717.88;;;15.31;71.71
3668;BME280;24099;47.102;15.440;2022-09-21T09:54:13;97719.84;;;15.09;70.91
3668;BME280;24099;47.102;15.440;2022-09-21T09:56:44;97719.16;;;15.00;72.23
3668;BME280;24099;47.102;15.440;2022-09-21T09:59:22;97715.38;;;15.64;70.37
3668;BME280;24099;47.102;15.440;2022-09-21T10:02:02;97716.44;;;15.82;69.65
3668;BME280;24099;47.102;15.440;2022-09-21T10:04:29;97718.47;;;15.87;70.54
3668;BME280;24099;47.102;15.440;2022-09-21T10:07:00;97714.81;;;16.21;69.96
3668;BME280;24099;47.102;15.440;2022-09-21T10:09:29;97717.44;;;15.75;71.13
3668;BME280;24099;47.102;15.440;2022-09-21T10:12:01;97716.44;;;15.82;77.30
3668;BME280;24099;47.102;15.440;2022-09-21T10:14:33;97707.31;;;15.37;72.84
3668;BME280;24099;47.102;15.440;2022-09-21T10:17:06;97701.56;;;16.14;71.66
3668;BME280;24099;47.102;15.440;2022-09-21T10:19:34;97704.81;;;15.90;74.47
3668;BME280;24099;47.102;15.440;2022-09-21T10:22:04;97688.09;;;16.16;75.52
3668;BME280;24099;47.102;15.440;2022-09-21T10:24:35;97692.34;;;15.84;72.43
3668;BME280;24099;47.102;15.440;2022-09-21T10:27:11;97686.22;;;16.03;70.87
3668;BME280;24099;47.102;15.440;2022-09-21T10:29:41;97684.13;;;16.91;70.94
3668;BME280;24099;47.102;15.440;2022-09-21T10:32:22;97684.44;;;17.14;74.05
3668;BME280;24099;47.102;15.440;2022-09-21T10:35:16;97689.28;;;16.73;65.06
3668;BME280;24099;47.102;15.440;2022-09-21T10:37:47;97673.22;;;16.99;63.37
3668;BME280;24099;47.102;15.440;2022-09-21T10:40:25;97699.31;;;16.51;67.75
3668;BME280;24099;47.102;15.440;2022-09-21T10:42:57;97692.97;;;16.06;68.06
3668;BME280;24099;47.102;15.440;2022-09-21T10:45:30;97696.78;;;15.64;71.23
3668;BME280;24099;47.102;15.440;2022-09-21T10:48:06;97703.81;;;16.37;76.36
3668;BME280;24099;47.102;15.440;2022-09-21T10:50:36;97703.59;;;16.06;77.65
3668;BME280;24099;47.102;15.440;2022-09-21T10:53:12;97708.28;;;16.24;75.29
3668;BME280;24099;47.102;15.440;2022-09-21T10:55:52;97695.03;;;16.30;74.48
3668;BME280;24099;47.102;15.440;2022-09-21T10:58:26;97702.13;;;15.83;74.32
3668;BME280;24099;47.102;15.440;2022-09-21T11:01:08;97699.72;;;16.48;75.18
3668;BME280;24099;47.102;15.440;2022-09-21T11:03:46;97690.53;;;16.37;73.80
3668;BME280;24099;47.102;15.440;2022-09-21T11:06:20;97700.91;;;15.73;74.73
3668;BME280;24099;47.102;15.440;2022-09-21T11:08:54;97701.13;;;15.84;74.52
3668;BME280;24099;47.102;15.440;2022-09-21T11:11:31;97699.47;;;15.70;73.32
3668;BME280;24099;47.102;15.440;2022-09-21T11:14:13;97697.00;;;15.62;75.06
3668;BME280;24099;47.102;15.440;2022-09-21T11:16:50;97704.63;;;15.31;70.54
3668;BME280;24099;47.102;15.440;2022-09-21T11:19:24;97696.13;;;15.48;72.73
3668;BME280;24099;47.102;15.440;2022-09-21T11:22:00;97699.50;;;15.90;73.43
3668;BME280;24099;47.102;15.440;2022-09-21T11:24:38;97709.72;;;16.00;79.02
3668;BME280;24099;47.102;15.440;2022-09-21T11:27:12;97714.28;;;15.51;72.57
3668;BME280;24099;47.102;15.440;2022-09-21T11:29:56;97706.63;;;15.15;76.36
3668;BME280;24099;47.102;15.440;2022-09-21T11:32:48;97709.38;;;14.94;75.79
3668;BME280;24099;47.102;15.440;2022-09-21T11:35:30;97699.97;;;15.46;75.07
3668;BME280;24099;47.102;15.440;2022-09-21T11:38:10;97702.34;;;15.21;75.39
3668;BME280;24099;47.102;15.440;2022-09-21T11:41:05;97699.06;;;15.73;71.73
3668;BME280;24099;47.102;15.440;2022-09-21T11:47:36;97695.56;;;15.66;74.42
3668;BME280;24099;47.102;15.440;2022-09-21T11:50:40;97693.53;;;15.68;78.44
3668;BME280;24099;47.102;15.440;2022-09-21T11:54:05;97700.66;;;15.61;78.87
3668;BME280;24099;47.102;15.440;2022-09-21T11:56:40;97702.31;;;15.69;74.50
3668;BME280;24099;47.102;15.440;2022-09-21T11:59:33;97701.81;;;15.45;73.50
3668;BME280;24099;47.102;15.440;2022-09-21T12:05:40;97692.22;;;15.38;72.21
3668;BME280;24099;47.102;15.440;2022-09-21T12:11:10;97681.00;;;15.42;74.00
3668;BME280;24099;47.102;15.440;2022-09-21T12:13:47;97686.59;;;15.67;68.57
3668;BME280;24099;47.102;15.440;2022-09-21T12:16:25;97678.56;;;15.47;68.71
3668;BME280;24099;47.102;15.440;2022-09-21T12:19:06;97682.78;;;15.29;68.96
3668;BME280;24099;47.102;15.440;2022-09-21T12:21:37;97677.09;;;15.32;66.59
3668;BME280;24099;47.102;15.440;2022-09-21T12:24:14;97676.78;;;15.61;70.32
3668;BME280;24099;47.102;15.440;2022-09-21T12:26:48;97670.69;;;15.87;67.69
3668;BME280;24099;47.102;15.440;2022-09-21T12:29:20;97670.50;;;15.21;67.17
3668;BME280;24099;47.102;15.440;2022-09-21T12:32:10;97673.84;;;15.36;67.78
3668;BME280;24099;47.102;15.440;2022-09-21T12:34:44;97675.28;;;15.45;70.33
3668;BME280;24099;47.102;15.440;2022-09-21T12:37:16;97652.69;;;16.48;70.13
3668;BME280;24099;47.102;15.440;2022-09-21T12:39:50;97662.13;;;16.31;68.20
3668;BME280;24099;47.102;15.440;2022-09-21T12:42:29;97655.16;;;16.43;66.18
3668;BME280;24099;47.102;15.440;2022-09-21T12:45:05;97656.78;;;16.58;63.78
3668;BME280;24099;47.102;15.440;2022-09-21T12:47:51;97647.38;;;16.48;65.17
3668;BME280;24099;47.102;15.440;2022-09-21T12:50:47;97658.66;;;16.04;63.08
3668;BME280;24099;47.102;15.440;2022-09-21T12:53:22;97657.41;;;16.46;64.38
3668;BME280;24099;47.102;15.440;2022-09-21T12:55:58;97669.06;;;16.19;63.87
3668;BME280;24099;47.102;15.440;2022-09-21T12:58:43;97653.16;;;15.93;65.24
3668;BME280;24099;47.102;15.440;2022-09-21T13:01:30;97655.19;;;15.91;65.01
3668;BME280;24099;47.102;15.440;2022-09-21T13:04:25;97660.50;;;15.77;64.73
3668;BME280;24099;47.102;15.440;2022-09-21T13:10:19;97651.72;;;15.77;65.04
3668;BME280;24099;47.102;15.440;2022-09-21T13:12:54;97643.72;;;16.23;63.01
3668;BME280;24099;47.102;15.440;2022-09-21T13:15:26;97636.81;;;16.15;59.94
3668;BME280;24099;47.102;15.440;2022-09-21T13:18:00;97632.88;;;16.44;66.49
3668;BME280;24099;47.102;15.440;2022-09-21T13:20:36;97637.56;;;16.49;64.79
3668;BME280;24099;47.102;15.440;2022-09-21T13:23:15;97639.25;;;16.30;60.97
3668;BME280;24099;47.102;15.440;2022-09-21T13:25:48;97624.91;;;16.44;62.78
3668;BME280;24099;47.102;15.440;2022-09-21T13:28:19;97630.81;;;16.40;63.60
3668;BME280;24099;47.102;15.440;2022-09-21T13:31:28;97630.41;;;16.56;61.97
3668;BME280;24099;47.102;15.440;2022-09-21T13:34:28;97620.56;;;16.70;63.20
3668;BME280;24099;47.102;15.440;2022-09-21T13:37:33;97621.19;;;16.72;65.72
3668;BME280;24099;47.102;15.440;2022-09-21T13:40:35;97626.28;;;16.60;60.80
3668;BME280;24099;47.102;15.440;2022-09-21T13:43:22;97618.34;;;16.47;64.25
3668;BME280;24099;47.102;15.440;2022-09-21T13:45:55;97622.09;;;16.00;63.53
3668;BME280;24099;47.102;15.440;2022-09-21T13:48:28;97630.47;;;15.90;58.73
3668;BME280;24099;47.102;15.440;2022-09-21T13:50:58;97631.66;;;15.61;58.06
3668;BME280;24099;47.102;15.440;2022-09-21T13:53:34;97624.75;;;15.87;61.13
3668;BME280;24099;47.102;15.440;2022-09-21T13:56:17;97618.63;;;15.93;63.97